createdAt,value
2023-04-26T00:04:41.667Z,7.10
2023-04-26T00:09:35.308Z,7.00
2023-04-26T00:14:28.718Z,7.10
2023-04-26T00:19:22.110Z,7.10
2023-04-26T00:24:16.862Z,7.10
2023-04-26T00:29:10.149Z,7.00
2023-04-26T00:34:03.448Z,6.90
2023-04-26T00:38:56.798Z,6.90
2023-04-26T00:43:51.509Z,6.90
2023-04-26T00:48:45.424Z,6.90
2023-04-26T00:53:41.493Z,6.80
2023-04-26T00:58:35.021Z,6.90
2023-04-26T01:03:30.417Z,6.70
2023-04-26T01:08:25.555Z,6.70
2023-04-26T01:13:19.327Z,6.50
2023-04-26T01:18:12.681Z,6.50
2023-04-26T01:23:07.477Z,6.40
2023-04-26T01:28:00.758Z,6.40
2023-04-26T01:32:54.408Z,6.60
2023-04-26T01:37:47.694Z,6.40
2023-04-26T01:42:42.325Z,6.30
2023-04-26T01:47:35.733Z,6.40
2023-04-26T01:52:29.116Z,6.50
2023-04-26T01:57:22.392Z,6.60
2023-04-26T02:02:18.913Z,6.60
2023-04-26T02:07:12.258Z,6.40
2023-04-26T02:12:05.671Z,6.30
2023-04-26T02:16:58.959Z,6.30
2023-04-26T02:21:58.910Z,6.30
2023-04-26T02:26:53.088Z,6.30
2023-04-26T02:31:48.755Z,6.10
2023-04-26T02:36:42.128Z,6.10
2023-04-26T02:41:36.796Z,6.10
2023-04-26T02:46:30.146Z,6.00
2023-04-26T02:51:23.534Z,6.00
2023-04-26T02:56:17.029Z,6.00
2023-04-26T03:01:12.567Z,6.00
2023-04-26T03:06:06.548Z,5.90
2023-04-26T03:10:59.933Z,5.70
2023-04-26T03:15:53.712Z,5.80
2023-04-26T03:20:49.544Z,5.90
2023-04-26T03:25:42.826Z,6.00
2023-04-26T03:30:36.181Z,6.10
2023-04-26T03:35:29.488Z,6.00
2023-04-26T03:40:24.142Z,6.10
2023-04-26T03:45:17.705Z,5.70
2023-04-26T03:50:11.969Z,5.60
2023-04-26T03:55:06.013Z,5.70
2023-04-26T04:00:00.742Z,5.60
2023-04-26T04:04:54.179Z,5.70
2023-04-26T04:09:47.678Z,5.80
2023-04-26T04:14:41.033Z,5.90
2023-04-26T04:19:35.916Z,6.00
2023-04-26T04:24:29.812Z,6.00
2023-04-26T04:29:23.324Z,5.90
2023-04-26T04:34:17.281Z,5.90
2023-04-26T04:39:16.167Z,5.90
2023-04-26T04:44:09.558Z,5.90
2023-04-26T04:49:03.228Z,6.00
2023-04-26T04:53:56.877Z,6.00
2023-04-26T04:58:51.747Z,5.90
2023-04-26T05:03:45.381Z,5.80
2023-04-26T05:08:38.859Z,5.90
2023-04-26T05:13:32.114Z,6.20
2023-04-26T05:18:27.559Z,6.20
2023-04-26T05:23:20.891Z,6.20
2023-04-26T05:28:14.430Z,6.00
2023-04-26T05:33:07.829Z,6.30
2023-04-26T05:38:05.097Z,6.50
2023-04-26T05:42:58.368Z,6.60
2023-04-26T05:47:52.317Z,6.80
2023-04-26T05:52:45.725Z,7.10
2023-04-26T05:57:40.458Z,7.20
2023-04-26T06:02:33.884Z,7.10
2023-04-26T06:07:27.287Z,7.20
2023-04-26T06:12:22.488Z,7.20
2023-04-26T06:17:17.240Z,7.20
2023-04-26T06:22:10.545Z,7.10
2023-04-26T06:27:03.984Z,7.20
2023-04-26T06:31:57.286Z,7.10
2023-04-26T06:36:52.253Z,7.10
2023-04-26T06:41:45.695Z,7.30
2023-04-26T06:46:39.196Z,7.60
2023-04-26T06:51:32.811Z,8.00
2023-04-26T06:56:27.604Z,8.40
2023-04-26T07:01:20.931Z,8.60
2023-04-26T07:06:14.247Z,8.70
2023-04-26T07:11:11.676Z,8.80
2023-04-26T07:16:06.859Z,8.80
2023-04-26T07:21:00.179Z,9.00
2023-04-26T07:25:54.866Z,9.00
2023-04-26T07:30:49.023Z,8.80
2023-04-26T07:35:44.998Z,8.50
2023-04-26T07:40:38.341Z,8.10
2023-04-26T07:45:31.847Z,7.90
2023-04-26T07:50:26.141Z,7.90
2023-04-26T07:55:20.908Z,7.90
2023-04-26T08:00:16.817Z,8.10
2023-04-26T08:05:10.695Z,8.20
2023-04-26T08:10:04.783Z,8.30
2023-04-26T08:15:01.131Z,8.80
2023-04-26T08:19:54.727Z,9.40
2023-04-26T08:24:50.201Z,9.80
2023-04-26T08:29:43.807Z,10.10
2023-04-26T08:34:38.586Z,10.40
2023-04-26T08:39:31.914Z,10.60
2023-04-26T08:44:28.979Z,10.80
2023-04-26T08:49:34.680Z,10.90
2023-04-26T08:54:31.055Z,11.00
2023-04-26T08:59:25.199Z,11.00
2023-04-26T09:04:19.102Z,10.80
2023-04-26T09:09:18.743Z,10.90
2023-04-26T09:14:13.455Z,10.80
2023-04-26T09:19:06.816Z,10.70
2023-04-26T09:24:04.474Z,10.70
2023-04-26T09:34:19.179Z,10.60
2023-04-26T09:39:12.520Z,10.90
2023-04-26T09:44:06.168Z,11.20
2023-04-26T09:49:03.709Z,11.60
2023-04-26T09:53:58.491Z,11.90
2023-04-26T09:59:03.953Z,12.30
2023-04-26T10:03:58.431Z,12.60
2023-04-26T10:08:52.371Z,12.80
2023-04-26T10:13:47.331Z,12.90
2023-04-26T10:18:41.008Z,12.70
2023-04-26T10:23:34.867Z,12.30
2023-04-26T10:29:02.707Z,11.90
2023-04-26T10:34:20.035Z,11.70
2023-04-26T10:39:23.376Z,11.80
2023-04-26T10:44:41.385Z,12.10
2023-04-26T10:49:48.456Z,12.40
2023-04-26T10:55:08.007Z,12.50
2023-04-26T11:00:32.948Z,12.40
2023-04-26T11:05:55.599Z,12.90
2023-04-26T11:11:00.690Z,12.80
2023-04-26T11:16:04.912Z,12.90
2023-04-26T11:20:59.309Z,13.40
2023-04-26T11:25:55.029Z,13.60
2023-04-26T11:30:50.450Z,13.50
2023-04-26T11:35:46.404Z,13.30
2023-04-26T11:40:39.788Z,13.20
2023-04-26T11:45:35.946Z,13.20
2023-04-26T11:50:31.468Z,13.10
2023-04-26T11:55:33.250Z,12.90
2023-04-26T12:00:28.291Z,12.90
2023-04-26T12:05:30.699Z,12.90
2023-04-26T12:10:27.875Z,13.10
2023-04-26T12:15:25.781Z,13.50
2023-04-26T12:20:20.531Z,13.60
2023-04-26T12:25:13.851Z,13.60
2023-04-26T12:30:09.338Z,13.30
2023-04-26T12:35:04.326Z,13.20
2023-04-26T12:39:57.724Z,13.20
2023-04-26T12:44:50.999Z,13.20
2023-04-26T12:49:44.426Z,13.40
2023-04-26T12:54:39.381Z,13.50
2023-04-26T12:59:32.676Z,13.50
2023-04-26T13:04:26.255Z,13.30
2023-04-26T13:09:20.098Z,13.30
2023-04-26T13:14:14.846Z,13.30
2023-04-26T13:19:08.298Z,13.10
2023-04-26T13:24:01.649Z,13.20
2023-04-26T13:28:55.074Z,13.30
2023-04-26T13:33:50.944Z,13.30
2023-04-26T13:38:45.240Z,13.20
2023-04-26T13:43:38.622Z,13.20
2023-04-26T13:48:32.011Z,13.40
2023-04-26T13:53:27.925Z,13.30
2023-04-26T13:58:21.207Z,13.40
2023-04-26T14:03:14.622Z,13.30
2023-04-26T14:08:08.419Z,13.30
2023-04-26T14:13:03.069Z,13.30
2023-04-26T14:17:56.370Z,13.40
2023-04-26T14:22:50.286Z,13.50
2023-04-26T14:27:43.760Z,13.50
2023-04-26T14:32:38.965Z,13.40
2023-04-26T14:37:32.384Z,13.40
2023-04-26T14:42:25.852Z,13.40
2023-04-26T14:47:19.195Z,13.40
2023-04-26T14:52:13.924Z,13.40
2023-04-26T14:57:07.458Z,13.40
2023-04-26T15:02:00.843Z,13.40
2023-04-26T15:06:54.328Z,13.50
2023-04-26T15:11:49.034Z,13.40
2023-04-26T15:16:42.439Z,13.30
2023-04-26T15:21:35.844Z,13.30
2023-04-26T15:26:31.039Z,13.30
2023-04-26T15:31:25.877Z,13.40
2023-04-26T15:36:20.536Z,13.30
2023-04-26T15:41:14.014Z,13.20
2023-04-26T15:46:07.413Z,13.10
2023-04-26T15:51:06.707Z,13.20
2023-04-26T15:56:00.121Z,13.20
2023-04-26T16:00:53.793Z,13.00
2023-04-26T16:05:47.144Z,13.00
2023-04-26T16:10:42.231Z,13.00
2023-04-26T16:15:35.603Z,13.00
2023-04-26T16:20:28.961Z,12.90
2023-04-26T16:25:22.509Z,12.90
2023-04-26T16:30:17.639Z,12.80
2023-04-26T16:35:11.505Z,12.90
2023-04-26T16:40:05.998Z,12.90
2023-04-26T16:44:59.724Z,12.80
2023-04-26T16:49:54.488Z,12.80
2023-04-26T16:54:47.841Z,12.70
2023-04-26T16:59:41.257Z,12.70
2023-04-26T17:04:35.467Z,12.70
2023-04-26T17:09:30.348Z,12.70
2023-04-26T17:14:23.721Z,12.60
2023-04-26T17:19:17.181Z,12.50
2023-04-26T17:24:10.666Z,12.40
2023-04-26T17:29:05.459Z,12.40
2023-04-26T17:33:58.814Z,12.40
2023-04-26T17:38:52.113Z,12.20
2023-04-26T17:43:45.693Z,12.20
2023-04-26T17:48:40.572Z,12.10
2023-04-26T17:53:34.380Z,12.00
2023-04-26T17:58:27.838Z,12.10
2023-04-26T18:03:21.617Z,12.00
2023-04-26T18:08:16.849Z,12.00
2023-04-26T18:13:11.200Z,11.90
2023-04-26T18:18:08.048Z,11.90
2023-04-26T18:23:01.496Z,11.90
2023-04-26T18:27:56.325Z,11.80
2023-04-26T18:32:52.993Z,11.80
2023-04-26T18:37:46.538Z,11.70
2023-04-26T18:42:39.958Z,11.50
2023-04-26T18:47:34.762Z,11.40
2023-04-26T18:52:28.151Z,11.30
2023-04-26T18:57:22.740Z,11.30
2023-04-26T19:02:16.141Z,11.20
2023-04-26T19:07:10.912Z,11.20
2023-04-26T19:12:05.957Z,11.20
2023-04-26T19:16:59.918Z,11.10
2023-04-26T19:21:53.426Z,11.00
2023-04-26T19:26:48.135Z,10.90
2023-04-26T19:31:41.556Z,10.90
2023-04-26T19:36:36.457Z,10.90
2023-04-26T19:41:29.861Z,10.90
2023-04-26T19:46:24.640Z,11.00
2023-04-26T19:51:19.452Z,10.90
2023-04-26T19:56:12.837Z,10.90
2023-04-26T20:01:06.717Z,10.90
2023-04-26T20:06:01.659Z,10.80
2023-04-26T20:10:55.005Z,10.60
2023-04-26T20:15:48.298Z,10.60
2023-04-26T20:20:41.668Z,10.70
2023-04-26T20:25:36.394Z,10.80
2023-04-26T20:30:31.282Z,10.70
2023-04-26T20:35:24.616Z,10.60
2023-04-26T20:40:18.455Z,10.60
2023-04-26T20:45:14.038Z,10.60
2023-04-26T20:50:09.194Z,10.40
2023-04-26T20:55:02.593Z,10.40
2023-04-26T20:59:56.026Z,10.40
2023-04-26T21:04:50.864Z,10.40
2023-04-26T21:09:44.337Z,10.40
2023-04-26T21:14:37.919Z,10.50
2023-04-26T21:19:31.366Z,10.70
2023-04-26T21:24:26.104Z,10.60
2023-04-26T21:29:19.383Z,10.50
2023-04-26T21:34:12.763Z,10.30
2023-04-26T21:39:06.210Z,10.30
2023-04-26T21:44:01.064Z,10.30
2023-04-26T21:48:54.816Z,10.30
2023-04-26T21:53:48.176Z,10.30
2023-04-26T21:58:41.596Z,10.40
2023-04-26T22:03:36.485Z,10.40
2023-04-26T22:08:30.078Z,10.30
2023-04-26T22:13:23.970Z,10.20
2023-04-26T22:18:17.571Z,10.00
2023-04-26T22:23:13.417Z,10.10
2023-04-26T22:28:07.060Z,10.10
2023-04-26T22:33:00.887Z,10.10
2023-04-26T22:37:55.765Z,10.10
2023-04-26T22:42:50.475Z,10.10
2023-04-26T22:47:44.900Z,10.10
2023-04-26T22:52:39.005Z,10.10
2023-04-26T22:57:32.431Z,10.00
2023-04-26T23:02:27.246Z,10.00
2023-04-26T23:07:20.849Z,10.00
2023-04-26T23:12:20.024Z,9.90
2023-04-26T23:17:13.980Z,9.90
2023-04-26T23:22:08.737Z,9.90
2023-04-26T23:27:02.783Z,9.80
2023-04-26T23:31:56.395Z,9.80
2023-04-26T23:36:49.909Z,9.70
2023-04-26T23:41:44.755Z,9.50
2023-04-26T23:46:38.237Z,9.60
2023-04-26T23:51:32.387Z,9.70
2023-04-26T23:56:25.832Z,9.70
